Time;durP1;ratioP1;P1;durP2;ratioP2;P2;SDS_P1;SDS_P2;PMS_P1;PMS_P2;Temp;Humidity;BMP_temperature;BMP_pressure;BME280_temperature;BME280_humidity;BME280_pressure;Samples;Min_cycle;Max_cycle;Signal;HPM_P1;HPM_P2
2023/06/06 00:01:03;;;;;;;8.07;5.25;;;;;;;12.49;81.51;102249.28;4962404;28;20138;-83
2023/06/06 00:03:28;;;;;;;10.82;5.50;;;;;;;12.42;80.88;102243.31;4962918;28;20034;-83
2023/06/06 00:05:55;;;;;;;6.40;4.80;;;;;;;12.27;82.25;102230.59;4962798;28;20414;-83
2023/06/06 00:08:23;;;;;;;6.35;4.75;;;;;;;12.28;82.22;102243.69;4962331;28;20051;-83
2023/06/06 00:10:49;;;;;;;7.85;4.70;;;;;;;12.22;82.68;102243.81;4979803;28;20269;-83
2023/06/06 00:13:15;;;;;;;7.90;5.13;;;;;;;12.22;82.40;102238.56;4980361;28;20112;-83
2023/06/06 00:15:41;;;;;;;6.15;4.45;;;;;;;12.25;82.35;102233.25;4980118;28;20042;-83
2023/06/06 00:18:07;;;;;;;8.75;4.70;;;;;;;12.21;82.58;102244.75;4984596;28;20030;-83
2023/06/06 00:20:32;;;;;;;5.95;4.90;;;;;;;12.18;82.79;102239.56;4965847;28;20501;-83
2023/06/06 00:22:59;;;;;;;5.20;4.70;;;;;;;12.22;82.67;102237.72;4981459;28;20273;-83
2023/06/06 00:25:25;;;;;;;7.57;4.82;;;;;;;12.24;82.06;102239.44;4982387;28;20062;-83
2023/06/06 00:27:50;;;;;;;9.52;4.78;;;;;;;12.26;82.28;102232.38;4981810;28;20041;-83
2023/06/06 00:30:15;;;;;;;6.10;5.10;;;;;;;12.25;82.28;102240.28;4982304;28;20328;-83
2023/06/06 00:32:41;;;;;;;7.32;4.95;;;;;;;12.32;81.77;102241.00;4965766;28;20044;-83
2023/06/06 00:35:06;;;;;;;5.10;4.55;;;;;;;12.27;82.32;102241.09;4998994;28;20038;-83
2023/06/06 00:37:32;;;;;;;6.95;4.70;;;;;;;12.27;82.10;102241.09;4965991;28;20113;-83
2023/06/06 00:39:57;;;;;;;5.50;4.75;;;;;;;12.31;82.14;102240.13;4998567;28;20066;-83
2023/06/06 00:42:23;;;;;;;6.88;4.95;;;;;;;12.28;81.85;102240.22;4999357;28;20410;-83
2023/06/06 00:44:48;;;;;;;8.02;5.25;;;;;;;12.27;81.69;102241.94;4965184;28;20050;-84
2023/06/06 00:47:14;;;;;;;8.18;4.85;;;;;;;12.21;82.14;102243.91;4981481;28;20042;-83
2023/06/06 00:49:41;;;;;;;5.80;5.20;;;;;;;12.12;82.54;102236.25;4999285;28;20273;-83
2023/06/06 00:52:08;;;;;;;8.40;5.10;;;;;;;12.12;82.17;102239.72;4998637;28;20288;-83
2023/06/06 00:54:34;;;;;;;7.88;5.95;;;;;;;12.07;82.72;102231.09;4981384;28;20097;-83
2023/06/06 00:57:00;;;;;;;5.72;5.15;;;;;;;12.04;82.84;102239.91;4964387;28;20237;-83
2023/06/06 00:59:26;;;;;;;6.25;5.38;;;;;;;12.06;82.68;102234.59;4981642;28;20069;-83
2023/06/06 01:05:18;;;;;;;8.85;5.35;;;;;;;11.94;83.50;102235.78;4965971;28;20100;-83
2023/06/06 01:07:47;;;;;;;6.85;4.90;;;;;;;11.98;83.31;102233.94;4963260;28;20058;-83
2023/06/06 01:10:13;;;;;;;5.93;4.75;;;;;;;12.01;83.23;102237.38;4979145;28;20046;-83
2023/06/06 01:13:00;;;;;;;6.43;4.93;;;;;;;11.98;82.98;102233.94;4980542;28;20033;-83
2023/06/06 01:15:31;;;;;;;7.38;5.13;;;;;;;11.98;82.84;102231.31;4997644;28;20030;-83
2023/06/06 01:17:57;;;;;;;7.13;5.20;;;;;;;11.96;82.86;102225.25;4976355;28;20031;-83
2023/06/06 01:20:23;;;;;;;7.20;5.20;;;;;;;11.94;82.86;102227.06;4979534;28;20082;-83
2023/06/06 01:22:50;;;;;;;6.03;4.68;;;;;;;11.96;83.30;102233.13;4961229;28;20038;-83
2023/06/06 01:25:19;;;;;;;11.32;5.38;;;;;;;11.92;82.98;102226.22;4978588;28;20039;-83
2023/06/06 01:27:49;;;;;;;6.50;5.07;;;;;;;11.93;82.79;102233.19;4989844;28;20041;-83
2023/06/06 01:30:17;;;;;;;10.20;5.22;;;;;;;11.86;83.00;102235.94;4980592;28;20270;-83
2023/06/06 01:32:48;;;;;;;5.93;4.93;;;;;;;11.84;83.29;102226.34;4980118;28;20332;-83
2023/06/06 01:35:23;;;;;;;11.00;4.85;;;;;;;11.88;83.44;102221.00;4997810;28;20045;-83
2023/06/06 01:38:17;;;;;;;9.38;5.55;;;;;;;11.89;83.31;102222.72;4997255;28;20057;-83
2023/06/06 01:40:45;;;;;;;7.60;5.00;;;;;;;11.97;82.86;102227.84;4993544;28;20054;-83
2023/06/06 01:43:14;;;;;;;8.20;5.03;;;;;;;11.94;82.76;102227.06;4979954;28;20079;-83
2023/06/06 01:45:40;;;;;;;9.45;5.30;;;;;;;11.92;83.29;102227.09;4997839;28;20316;-83
2023/06/06 01:48:06;;;;;;;9.82;5.38;;;;;;;11.81;82.88;102232.56;4969342;28;20269;-83
2023/06/06 01:50:32;;;;;;;7.60;5.05;;;;;;;11.84;83.67;102228.97;4978729;28;20034;-83
2023/06/06 01:52:57;;;;;;;5.88;4.45;;;;;;;11.93;83.46;102230.56;4978162;28;20065;-83
2023/06/06 01:55:23;;;;;;;6.65;5.30;;;;;;;11.94;83.30;102224.44;4944946;28;20121;-83
2023/06/06 01:57:49;;;;;;;8.05;4.90;;;;;;;11.89;83.29;102221.88;4980112;28;20066;-83
2023/06/06 02:00:16;;;;;;;10.55;5.03;;;;;;;11.90;83.24;102221.00;4979486;28;20050;-83
2023/06/06 02:02:42;;;;;;;28.02;5.53;;;;;;;11.91;83.39;102220.09;4969180;28;20075;-83
2023/06/06 02:05:07;;;;;;;6.18;4.75;;;;;;;11.95;83.09;102227.03;4975960;28;20026;-83
2023/06/06 02:07:34;;;;;;;8.65;4.97;;;;;;;11.96;83.44;102222.63;4979356;28;20354;-83
2023/06/06 02:10:04;;;;;;;5.47;4.90;;;;;;;11.96;83.09;102220.84;4979447;28;20038;-84
2023/06/06 02:12:30;;;;;;;8.73;5.32;;;;;;;11.82;83.40;102222.91;4964032;28;20421;-83
2023/06/06 02:14:56;;;;;;;7.45;5.13;;;;;;;11.86;83.99;102222.81;4979391;28;20341;-84
2023/06/06 02:17:23;;;;;;;8.35;5.05;;;;;;;11.89;83.62;102222.72;4979507;28;20030;-83
2023/06/06 02:19:48;;;;;;;9.68;5.60;;;;;;;11.92;83.49;102223.59;4961676;28;20031;-83
2023/06/06 02:22:14;;;;;;;7.75;5.05;;;;;;;11.92;83.13;102224.47;4964918;28;20039;-80
2023/06/06 02:24:40;;;;;;;6.90;4.70;;;;;;;11.93;83.44;102223.53;4965129;28;20062;-80
2023/06/06 02:27:09;;;;;;;8.45;5.68;;;;;;;11.89;83.15;102225.34;4964537;28;20023;-79
2023/06/06 02:29:35;;;;;;;5.55;4.93;;;;;;;11.87;83.27;102234.16;4971855;28;20061;-79
2023/06/06 02:32:03;;;;;;;5.88;4.95;;;;;;;11.89;83.67;102217.47;4983450;28;20053;-79
2023/06/06 02:34:29;;;;;;;6.68;5.28;;;;;;;11.90;83.37;102229.75;4983387;28;20033;-79
2023/06/06 02:36:57;;;;;;;7.70;5.47;;;;;;;11.78;83.73;102224.75;4982727;28;20420;-80
2023/06/06 02:39:23;;;;;;;9.32;5.40;;;;;;;11.75;84.69;102221.31;4982823;28;20038;-80
2023/06/06 02:41:50;;;;;;;7.40;5.18;;;;;;;11.75;84.27;102231.81;4982911;28;20033;-79
2023/06/06 02:44:17;;;;;;;7.72;5.22;;;;;;;11.78;84.00;102224.75;4982882;28;20026;-79
2023/06/06 02:46:43;;;;;;;7.20;5.93;;;;;;;11.68;84.38;102226.72;4983171;28;20113;-80
2023/06/06 02:49:09;;;;;;;11.15;5.53;;;;;;;11.59;84.94;102224.31;4966582;28;20611;-80
2023/06/06 02:51:36;;;;;;;6.25;4.97;;;;;;;11.55;84.87;102222.69;4956171;28;20302;-79
2023/06/06 02:54:02;;;;;;;6.40;5.65;;;;;;;11.58;85.64;102225.22;4963904;28;20035;-80
2023/06/06 02:56:28;;;;;;;8.27;5.15;;;;;;;11.59;85.17;102221.69;4963906;28;20042;-79
2023/06/06 02:58:53;;;;;;;9.65;5.78;;;;;;;11.55;84.72;102221.78;4964149;28;20346;-79
2023/06/06 03:01:21;;;;;;;9.02;5.38;;;;;;;11.48;85.30;102231.59;4964084;28;20038;-80
2023/06/06 03:03:47;;;;;;;6.20;4.97;;;;;;;11.52;85.41;102231.47;4948212;28;20038;-80
2023/06/06 03:06:15;;;;;;;10.07;5.55;;;;;;;11.51;85.34;102226.25;4974167;28;20049;-80
2023/06/06 03:08:42;;;;;;;7.07;5.95;;;;;;;11.48;85.40;102226.34;4981438;28;20392;-79
2023/06/06 03:11:08;;;;;;;8.27;5.43;;;;;;;11.52;85.96;102236.72;4982487;28;20022;-79
2023/06/06 03:13:34;;;;;;;11.38;5.45;;;;;;;11.49;85.62;102228.91;4981623;28;20237;-80
2023/06/06 03:15:59;;;;;;;10.23;4.93;;;;;;;11.56;85.35;102228.78;4982121;28;20034;-80
2023/06/06 03:18:25;;;;;;;8.98;6.55;;;;;;;11.45;85.48;102234.25;4982229;28;20034;-80
2023/06/06 03:20:53;;;;;;;6.65;5.30;;;;;;;11.37;86.14;102228.31;4981990;28;20145;-80
2023/06/06 03:23:19;;;;;;;6.05;5.53;;;;;;;11.42;86.51;102236.94;4973042;28;20025;-79
2023/06/06 03:25:45;;;;;;;9.50;5.55;;;;;;;11.39;86.43;102232.63;4975352;28;20038;-80
2023/06/06 03:28:12;;;;;;;10.02;6.10;;;;;;;11.37;86.49;102238.78;4972677;28;20065;-80
2023/06/06 03:30:38;;;;;;;7.28;5.90;;;;;;;11.37;86.80;102229.19;4999803;28;20045;-80
2023/06/06 03:33:06;;;;;;;12.45;6.15;;;;;;;11.31;86.64;102232.81;4978580;28;20034;-79
2023/06/06 03:35:33;;;;;;;9.77;5.63;;;;;;;11.34;87.18;102231.88;4998458;28;20457;-80
2023/06/06 03:38:03;;;;;;;12.30;5.70;;;;;;;11.34;86.54;102231.88;4979383;28;20057;-80
2023/06/06 03:40:28;;;;;;;8.65;5.55;;;;;;;11.29;87.30;102223.22;4969469;28;20034;-79
2023/06/06 03:42:54;;;;;;;9.27;5.75;;;;;;;11.38;87.09;102235.28;4964271;28;20069;-80
2023/06/06 03:45:21;;;;;;;7.68;5.47;;;;;;;11.39;87.06;102235.25;4981658;28;20034;-79
2023/06/06 03:47:47;;;;;;;10.18;5.30;;;;;;;11.40;87.23;102236.97;4976289;28;20329;-79
2023/06/06 03:50:13;;;;;;;6.65;5.10;;;;;;;11.43;87.04;102236.06;4997967;28;20031;-79
2023/06/06 03:52:42;;;;;;;6.40;5.03;;;;;;;11.46;86.75;102233.34;4981552;28;20115;-80
2023/06/06 03:55:11;;;;;;;9.23;5.43;;;;;;;11.38;86.61;102230.03;4978277;28;20026;-79
2023/06/06 03:57:38;;;;;;;6.40;4.78;;;;;;;11.45;87.10;102231.63;4981445;28;20034;-80
2023/06/06 04:00:11;;;;;;;8.25;4.82;;;;;;;11.40;87.18;102233.50;4981221;28;20320;-80
2023/06/06 04:02:37;;;;;;;7.80;5.40;;;;;;;11.43;86.67;102233.44;4980794;28;20042;-80
2023/06/06 04:05:07;;;;;;;7.70;4.90;;;;;;;11.44;86.90;102230.78;4998986;28;20038;-80
2023/06/06 04:07:33;;;;;;;8.10;4.95;;;;;;;11.52;86.86;102226.22;4980902;28;20050;-79
2023/06/06 04:10:00;;;;;;;12.95;5.93;;;;;;;11.48;86.60;102228.97;4990155;28;20045;-79
2023/06/06 04:12:26;;;;;;;11.98;6.18;;;;;;;11.35;87.75;102231.00;4976703;28;20030;-79
2023/06/06 04:14:52;;;;;;;7.80;5.45;;;;;;;11.43;87.66;102223.78;4977437;28;20057;-79
2023/06/06 04:17:19;;;;;;;12.85;5.32;;;;;;;11.42;87.68;102227.31;4981040;28;20030;-80
2023/06/06 04:19:47;;;;;;;7.47;4.82;;;;;;;11.44;88.22;102222.03;4969109;28;20062;-79
2023/06/06 04:22:13;;;;;;;8.02;5.22;;;;;;;11.48;88.18;102228.97;4976330;28;20065;-80
2023/06/06 04:24:39;;;;;;;12.07;5.55;;;;;;;11.52;87.69;102225.34;4975476;28;20353;-79
2023/06/06 04:27:05;;;;;;;8.15;5.47;;;;;;;11.44;88.31;102222.91;4980895;28;20077;-80
2023/06/06 04:29:34;;;;;;;8.50;5.57;;;;;;;11.42;88.76;102223.81;4997913;28;20060;-79
2023/06/06 04:32:00;;;;;;;;;;;;;;;11.43;88.86;102223.78;4981019;28;20030;-80
2023/06/06 04:34:28;;;;;;;13.57;5.93;;;;;;;11.53;88.97;102221.81;4998622;28;19920;-79
2023/06/06 04:36:56;;;;;;;;;;;;;;;11.49;88.91;102222.78;4980803;28;20376;-80
2023/06/06 04:39:24;;;;;;;7.78;4.75;;;;;;;11.51;88.93;102232.38;4954288;28;19925;-80
2023/06/06 04:41:50;;;;;;;6.57;5.05;;;;;;;11.44;89.09;102227.28;4972180;28;20034;-79
2023/06/06 04:44:17;;;;;;;6.93;5.03;;;;;;;11.56;88.97;102224.38;4961188;28;20321;-79
2023/06/06 04:46:43;;;;;;;12.07;6.10;;;;;;;11.59;88.81;102223.44;4969925;28;20355;-79
2023/06/06 04:49:09;;;;;;;9.55;5.82;;;;;;;11.57;88.97;102231.38;4980846;28;20054;-80
2023/06/06 04:51:37;;;;;;;10.85;5.70;;;;;;;11.56;89.25;102223.53;4980910;28;20018;-80
2023/06/06 04:54:08;;;;;;;8.73;5.43;;;;;;;11.54;89.23;102234.06;4971919;28;20066;-79
2023/06/06 04:56:35;;;;;;;6.05;5.13;;;;;;;11.60;88.83;102231.28;4972445;28;20034;-79
2023/06/06 04:59:08;;;;;;;12.60;5.80;;;;;;;11.55;89.25;102224.41;4976859;28;20038;-79
2023/06/06 05:01:37;;;;;;;7.95;5.47;;;;;;;11.61;89.15;102232.16;4976289;28;20035;-79
2023/06/06 05:04:03;;;;;;;9.35;5.35;;;;;;;11.62;88.55;102229.47;4973842;28;20041;-79
2023/06/06 05:06:31;;;;;;;14.07;5.38;;;;;;;11.59;89.28;102218.19;4979090;28;20269;-79
2023/06/06 05:09:07;;;;;;;9.25;4.95;;;;;;;11.71;88.77;102223.16;4976494;28;20449;-79
2023/06/06 05:11:33;;;;;;;11.23;5.95;;;;;;;11.75;88.37;102231.81;4977359;28;20541;-80
2023/06/06 05:13:59;;;;;;;13.77;5.78;;;;;;;11.77;88.19;102227.41;4977117;28;20038;-79
2023/06/06 05:16:26;;;;;;;12.32;6.38;;;;;;;11.77;88.29;102227.41;4967669;28;20453;-80
2023/06/06 05:18:51;;;;;;;9.10;5.05;;;;;;;11.81;87.88;102232.56;4996309;28;20520;-80
2023/06/06 05:21:19;;;;;;;11.27;5.68;;;;;;;11.83;88.10;102222.03;4958228;28;20043;-80
2023/06/06 05:23:44;;;;;;;13.63;6.50;;;;;;;11.87;88.07;102226.28;4965844;28;20043;-80
2023/06/06 05:26:11;;;;;;;11.20;6.00;;;;;;;11.89;88.32;102232.38;4976662;28;20034;-79
2023/06/06 05:28:37;;;;;;;9.68;5.47;;;;;;;11.96;87.84;102230.50;4973394;28;20272;-80
2023/06/06 05:31:05;;;;;;;12.23;6.35;;;;;;;11.91;88.06;102233.22;4966150;28;20546;-80
2023/06/06 05:33:31;;;;;;;16.48;6.13;;;;;;;11.94;88.58;102229.69;4956920;28;20223;-80
2023/06/06 05:35:57;;;;;;;13.25;5.72;;;;;;;11.95;88.59;102227.03;4969323;28;20030;-79
2023/06/06 05:38:24;;;;;;;11.80;5.38;;;;;;;11.98;88.59;102228.69;4967898;28;20026;-80
2023/06/06 05:40:49;;;;;;;8.52;5.55;;;;;;;11.97;89.10;102232.22;4971325;28;20041;-80
2023/06/06 05:43:16;;;;;;;12.52;5.82;;;;;;;11.93;89.08;102227.94;4969690;28;20027;-80
2023/06/06 05:45:42;;;;;;;9.05;4.85;;;;;;;12.00;88.93;102227.75;4975492;28;20034;-80
2023/06/06 05:48:07;;;;;;;8.02;5.25;;;;;;;11.99;89.20;102230.41;4967153;28;20023;-80
2023/06/06 05:50:33;;;;;;;9.25;5.15;;;;;;;12.02;89.56;102235.59;4997210;28;20077;-80
2023/06/06 05:52:59;;;;;;;8.70;5.40;;;;;;;12.01;88.57;102234.75;4969613;28;20321;-80
2023/06/06 05:55:29;;;;;;;15.00;5.75;;;;;;;12.07;88.83;102234.56;4972085;28;20106;-80
2023/06/06 05:57:57;;;;;;;7.68;5.15;;;;;;;12.06;88.90;102232.88;4973462;28;20334;-80
2023/06/06 06:00:25;;;;;;;8.93;5.05;;;;;;;12.06;89.06;102231.97;4976583;28;20034;-80
2023/06/06 06:02:52;;;;;;;12.55;5.15;;;;;;;12.03;88.76;102232.06;4972620;28;20090;-80
2023/06/06 06:05:19;;;;;;;11.13;5.32;;;;;;;12.11;88.68;102238.00;4973803;28;20058;-80
2023/06/06 06:07:47;;;;;;;8.25;5.00;;;;;;;12.14;89.09;102237.91;4972593;28;20058;-80
2023/06/06 06:10:13;;;;;;;9.18;5.55;;;;;;;12.19;89.03;102237.81;4973296;28;20290;-80
2023/06/06 06:12:39;;;;;;;14.02;5.68;;;;;;;12.27;88.45;102236.69;4970278;28;20059;-79
2023/06/06 06:15:05;;;;;;;15.57;5.95;;;;;;;12.33;88.09;102230.44;4976879;28;20122;-80
2023/06/06 06:17:30;;;;;;;15.27;5.78;;;;;;;12.35;88.09;102233.91;4955142;28;20046;-79
2023/06/06 06:19:56;;;;;;;7.72;4.90;;;;;;;12.38;87.86;102238.19;4945765;28;20043;-80
2023/06/06 06:22:22;;;;;;;8.90;4.85;;;;;;;12.49;87.97;102238.78;4979298;28;20038;-79
2023/06/06 06:24:49;;;;;;;11.05;5.57;;;;;;;12.55;87.69;102237.75;4980340;28;20027;-79
2023/06/06 06:27:15;;;;;;;13.15;5.60;;;;;;;12.54;87.27;102244.78;4962889;28;20035;-80
2023/06/06 06:29:45;;;;;;;10.57;5.20;;;;;;;12.55;86.93;102240.38;4980956;28;20596;-80
2023/06/06 06:32:11;;;;;;;11.88;5.30;;;;;;;12.56;86.80;102242.97;4977233;28;20354;-80
2023/06/06 06:34:36;;;;;;;10.63;4.80;;;;;;;12.60;86.83;102246.38;4978613;28;20370;-80
2023/06/06 06:51:07;;;;;;;11.00;5.63;;;;;;;12.99;85.53;102246.19;4958294;28;20066;-80
2023/06/06 06:56:55;;;;;;;10.02;5.07;;;;;;;12.97;85.21;102242.72;4960059;28;20299;-80
2023/06/06 07:02:44;;;;;;;7.03;4.95;;;;;;;12.97;84.62;102240.09;4961002;28;20371;-80
2023/06/06 07:08:31;;;;;;;8.70;4.95;;;;;;;13.07;84.81;102249.47;4977029;28;21054;-80
2023/06/06 07:10:57;;;;;;;9.10;4.60;;;;;;;13.13;84.63;102244.00;4990212;28;20042;-80
2023/06/06 07:13:22;;;;;;;8.15;4.93;;;;;;;13.16;84.64;102241.28;4977185;28;20030;-80
2023/06/06 07:15:48;;;;;;;9.40;5.43;;;;;;;13.21;84.52;102252.56;4971256;28;20252;-80
2023/06/06 07:18:13;;;;;;;12.68;4.95;;;;;;;13.27;84.40;102248.88;4974948;28;20396;-80
2023/06/06 07:20:39;;;;;;;7.80;4.82;;;;;;;13.32;83.85;102244.38;4999109;28;20113;-80
2023/06/06 07:23:06;;;;;;;10.73;5.40;;;;;;;13.38;83.77;102246.81;4976191;28;20033;-80
2023/06/06 07:25:31;;;;;;;9.35;5.47;;;;;;;13.36;83.67;102238.09;4989381;28;20034;-80
2023/06/06 07:27:58;;;;;;;8.73;5.30;;;;;;;13.47;83.83;102232.53;4993393;28;20073;-79
2023/06/06 07:30:24;;;;;;;8.30;5.38;;;;;;;13.48;83.13;102231.63;4998753;28;20046;-80
2023/06/06 07:32:49;;;;;;;15.55;5.47;;;;;;;13.50;83.37;102232.44;4976012;28;20038;-80
2023/06/06 07:35:19;;;;;;;7.55;5.20;;;;;;;13.54;82.79;102239.31;4980890;28;20034;-80
2023/06/06 07:37:45;;;;;;;12.27;5.60;;;;;;;13.61;82.64;102229.47;4997340;28;20044;-80
2023/06/06 07:40:11;;;;;;;9.38;6.00;;;;;;;13.64;82.15;102232.00;4996740;28;20061;-80
2023/06/06 07:42:39;;;;;;;13.70;6.15;;;;;;;13.76;82.33;102228.13;4997657;28;20336;-80
2023/06/06 07:45:04;;;;;;;7.85;5.00;;;;;;;13.82;81.95;102227.91;4988594;28;20379;-80
2023/06/06 07:47:30;;;;;;;9.10;4.88;;;;;;;13.89;81.63;102232.06;4982446;28;20038;-80
2023/06/06 07:49:55;;;;;;;11.02;5.38;;;;;;;13.93;81.26;102228.44;4970092;28;20038;-80
2023/06/06 07:52:21;;;;;;;11.23;5.43;;;;;;;14.00;80.71;102226.47;4983292;28;20379;-80
2023/06/06 07:54:47;;;;;;;7.65;4.90;;;;;;;14.07;81.18;102233.25;4980485;28;20030;-80
2023/06/06 07:57:15;;;;;;;9.38;5.07;;;;;;;14.08;80.05;102228.84;4998035;28;20034;-80
2023/06/06 07:59:42;;;;;;;7.18;4.88;;;;;;;14.08;79.50;102221.81;4995367;28;20030;-80
2023/06/06 08:02:08;;;;;;;12.60;4.50;;;;;;;14.18;79.74;102233.75;4974547;28;20077;-80
2023/06/06 08:04:33;;;;;;;13.23;4.38;;;;;;;14.23;79.22;102233.59;4981279;28;20034;-80
2023/06/06 08:07:03;;;;;;;8.63;3.88;;;;;;;14.25;78.55;102226.50;4997901;28;20349;-80
2023/06/06 08:09:30;;;;;;;7.35;4.20;;;;;;;14.32;78.89;102224.53;4997494;28;20058;-80
2023/06/06 08:11:56;;;;;;;7.35;4.05;;;;;;;14.33;78.02;102219.19;4981741;28;20112;-80
2023/06/06 08:14:22;;;;;;;9.68;4.97;;;;;;;14.40;77.72;102217.22;4986695;28;20038;-80
2023/06/06 08:16:47;;;;;;;13.05;4.53;;;;;;;14.42;77.53;102218.00;4997543;28;20290;-80
2023/06/06 08:19:13;;;;;;;12.77;4.88;;;;;;;14.46;77.49;102222.28;4996752;28;20038;-80
2023/06/06 08:21:39;;;;;;;7.00;5.05;;;;;;;14.52;77.22;102219.41;4966744;28;20030;-80
2023/06/06 08:24:05;;;;;;;9.15;4.45;;;;;;;14.59;77.50;102214.84;4971295;28;20087;-80
2023/06/06 08:26:30;;;;;;;9.35;4.50;;;;;;;14.66;77.41;102215.44;4997449;28;20026;-80
2023/06/06 08:28:56;;;;;;;9.38;4.15;;;;;;;14.75;77.46;102216.00;4997536;28;20038;-80
2023/06/06 08:31:23;;;;;;;9.30;4.88;;;;;;;14.81;76.22;102224.56;4997503;28;20038;-80
2023/06/06 08:33:49;;;;;;;7.25;4.28;;;;;;;14.86;76.47;102218.25;4996689;28;20294;-80
2023/06/06 08:36:15;;;;;;;8.55;5.18;;;;;;;14.90;75.66;102216.34;4964051;28;20089;-80
2023/06/06 08:38:43;;;;;;;8.18;4.47;;;;;;;14.95;75.61;102217.91;4998779;28;20214;-80
2023/06/06 08:41:10;;;;;;;9.77;4.77;;;;;;;15.02;75.31;102215.03;4998948;28;20098;-80
2023/06/06 08:43:39;;;;;;;7.90;4.40;;;;;;;15.09;75.61;102209.44;4973623;28;20038;-80
2023/06/06 08:46:05;;;;;;;6.68;4.50;;;;;;;15.21;75.96;102218.69;4987033;28;20241;-80
2023/06/06 08:48:34;;;;;;;8.75;5.07;;;;;;;15.29;74.62;102211.34;4973026;28;20045;-81
2023/06/06 08:51:03;;;;;;;7.75;4.47;;;;;;;15.31;73.94;102216.56;4962985;28;20146;-80
2023/06/06 08:53:33;;;;;;;11.63;4.70;;;;;;;15.36;74.39;102218.09;4981453;28;20054;-80
2023/06/06 08:55:58;;;;;;;13.75;5.35;;;;;;;15.45;73.94;102216.03;4987630;28;20046;-80
2023/06/06 08:58:25;;;;;;;8.63;5.13;;;;;;;15.52;74.21;102217.50;4979964;28;20338;-80
2023/06/06 09:00:51;;;;;;;10.35;5.07;;;;;;;15.53;73.04;102214.81;4978102;28;20045;-80
2023/06/06 09:03:20;;;;;;;12.70;5.18;;;;;;;15.56;73.25;102216.47;4962115;28;20039;-80
2023/06/06 09:05:49;;;;;;;8.68;5.47;;;;;;;15.61;73.23;102210.97;4975470;28;20035;-80
2023/06/06 09:08:17;;;;;;;8.25;4.68;;;;;;;15.65;73.19;102210.81;4972044;28;20409;-81
2023/06/06 09:10:42;;;;;;;13.38;4.55;;;;;;;15.74;73.58;102196.41;4979059;28;20050;-80
2023/06/06 09:13:08;;;;;;;9.18;4.60;;;;;;;15.83;73.37;102208.38;4962077;28;20047;-80
2023/06/06 09:15:33;;;;;;;13.35;4.82;;;;;;;15.92;73.55;102200.94;4945775;28;20041;-80
2023/06/06 09:17:59;;;;;;;12.43;5.18;;;;;;;16.00;72.64;102208.53;4979480;28;20081;-80
2023/06/06 09:20:25;;;;;;;11.30;5.20;;;;;;;16.05;72.66;102206.56;4978883;28;20097;-80
2023/06/06 09:22:52;;;;;;;10.00;4.43;;;;;;;16.08;72.38;102209.09;4990344;28;20103;-80
2023/06/06 09:25:20;;;;;;;11.45;5.50;;;;;;;16.10;71.76;102201.94;4965377;28;20105;-80
2023/06/06 09:27:47;;;;;;;12.68;5.43;;;;;;;16.15;71.27;102211.44;4987312;28;20234;-80
2023/06/06 09:43:40;;;;;;;11.73;5.55;;;;;;;16.52;71.85;102192.22;4974629;28;20376;-81
2023/06/06 09:59:26;;;;;;;10.48;5.90;;;;;;;16.88;69.86;102200.31;4995960;28;20061;-81
2023/06/06 10:02:05;;;;;;;10.27;5.03;;;;;;;16.90;69.82;102200.25;4976192;28;20651;-81
2023/06/06 10:04:32;;;;;;;14.93;5.63;;;;;;;16.92;69.50;102192.22;4975551;28;20034;-81
2023/06/06 10:07:02;;;;;;;12.63;5.28;;;;;;;16.95;69.41;102200.03;4962313;28;20329;-80
2023/06/06 13:09:19;;;;;;;9.93;5.28;;;;;;;19.69;60.35;102123.00;4900293;28;20061;-85
2023/06/06 13:11:45;;;;;;;8.38;5.10;;;;;;;19.73;60.45;102140.50;4972339;28;20061;-85
2023/06/06 13:14:13;;;;;;;12.18;5.43;;;;;;;19.78;60.30;102126.13;4972748;28;20030;-85
2023/06/06 13:16:39;;;;;;;6.32;4.50;;;;;;;19.83;60.92;102137.31;4979168;28;20045;-85
2023/06/06 13:19:06;;;;;;;8.93;4.63;;;;;;;19.83;61.23;102129.31;4979845;28;20030;-85
2023/06/06 13:21:32;;;;;;;5.80;4.85;;;;;;;19.87;60.60;102123.75;4979684;28;20229;-85
2023/06/06 13:23:58;;;;;;;8.27;5.38;;;;;;;19.85;60.27;102116.81;4979426;28;20073;-85
2023/06/06 13:26:25;;;;;;;9.48;4.88;;;;;;;19.91;60.37;102121.78;4979584;28;20055;-85
2023/06/06 13:28:51;;;;;;;11.43;5.53;;;;;;;19.92;59.62;102118.19;4978260;28;20053;-85
2023/06/06 13:31:17;;;;;;;8.75;4.70;;;;;;;19.94;59.67;102111.81;4965916;28;20038;-85
2023/06/06 13:33:42;;;;;;;7.25;4.57;;;;;;;19.99;59.71;102111.50;4979730;28;20108;-85
2023/06/06 13:36:08;;;;;;;9.27;5.18;;;;;;;20.01;59.79;102103.44;4995751;28;20030;-85
2023/06/06 13:38:33;;;;;;;10.65;5.03;;;;;;;20.03;60.42;102113.06;4969120;28;20062;-85
2023/06/06 13:40:59;;;;;;;13.35;5.35;;;;;;;20.05;59.25;102113.81;4995662;28;20072;-85
2023/06/06 13:43:24;;;;;;;7.82;5.07;;;;;;;20.09;59.59;102111.81;4979961;28;20034;-85
2023/06/06 13:45:50;;;;;;;5.05;4.00;;;;;;;20.13;59.76;102110.69;4966574;28;20117;-85
2023/06/06 13:48:15;;;;;;;10.05;4.60;;;;;;;20.15;59.78;102106.13;4988047;28;20361;-85
2023/06/06 13:50:41;;;;;;;7.60;4.63;;;;;;;20.18;59.17;102115.75;4996992;28;20105;-85
2023/06/06 13:53:07;;;;;;;7.00;4.50;;;;;;;20.20;59.02;102113.84;4997186;28;20133;-85
2023/06/06 13:55:32;;;;;;;17.52;4.88;;;;;;;20.22;58.85;102118.09;4995526;28;20034;-85
2023/06/06 13:58:02;;;;;;;9.70;4.68;;;;;;;20.21;58.47;102120.84;4996569;28;20049;-85
2023/06/06 14:00:28;;;;;;;7.30;4.78;;;;;;;20.17;59.21;102109.53;4995473;28;20054;-85
2023/06/06 14:02:54;;;;;;;8.38;5.35;;;;;;;20.21;58.72;102119.06;4996734;28;20129;-85
2023/06/06 14:05:20;;;;;;;7.15;5.03;;;;;;;20.22;59.63;102111.94;4995668;28;20046;-85
2023/06/06 14:07:46;;;;;;;7.10;4.78;;;;;;;20.21;60.02;102118.19;4995277;28;20050;-85
2023/06/06 14:10:12;;;;;;;10.25;5.43;;;;;;;20.28;60.27;102108.88;4971295;28;20037;-85
2023/06/06 14:12:38;;;;;;;7.45;4.82;;;;;;;20.31;58.72;102117.53;4995130;28;20038;-85
2023/06/06 14:15:04;;;;;;;7.15;5.00;;;;;;;20.31;58.81;102111.38;4995368;28;20026;-85
2023/06/06 14:17:29;;;;;;;8.90;4.25;;;;;;;20.31;59.06;102111.38;4998917;28;20042;-85
2023/06/06 14:19:56;;;;;;;8.98;4.80;;;;;;;20.34;59.83;102113.84;4999370;28;20308;-85
2023/06/06 14:22:26;;;;;;;6.30;4.82;;;;;;;20.35;59.66;102110.22;4999321;28;20049;-85
2023/06/06 14:24:55;;;;;;;7.22;5.00;;;;;;;20.40;59.21;102108.13;4998882;28;20054;-84
2023/06/06 14:27:20;;;;;;;;;;;;;;;20.41;59.68;102099.22;5000116;28;20220;-85
2023/06/06 14:29:49;;;;;;;12.82;6.03;;;;;;;20.38;59.42;102101.22;4999091;28;19945;-85
2023/06/06 14:32:15;;;;;;;9.57;5.47;;;;;;;20.38;59.86;102104.72;4999743;28;20033;-85
2023/06/06 14:34:43;;;;;;;6.88;5.43;;;;;;;20.39;60.19;102100.25;4999552;28;20038;-85
2023/06/06 14:37:08;;;;;;;13.43;5.90;;;;;;;20.45;60.02;102100.72;4980926;28;20036;-85
2023/06/06 14:39:34;;;;;;;7.35;5.18;;;;;;;20.49;59.77;102101.38;4989756;28;20053;-85
2023/06/06 14:42:00;;;;;;;10.80;5.78;;;;;;;20.48;59.92;102103.19;4998480;28;20205;-85
2023/06/06 14:44:30;;;;;;;15.52;6.25;;;;;;;20.50;59.46;102103.06;4999562;28;20218;-85
2023/06/06 14:46:59;;;;;;;7.28;6.03;;;;;;;20.47;59.30;102106.81;4997942;28;20400;-85
2023/06/06 14:49:26;;;;;;;14.80;6.22;;;;;;;20.48;59.82;102105.84;4997332;28;20088;-85
2023/06/06 14:51:52;;;;;;;9.57;5.30;;;;;;;20.47;60.18;102101.47;4973697;28;20030;-85
2023/06/06 14:54:18;;;;;;;10.10;5.65;;;;;;;20.51;59.80;102099.47;4973284;28;20075;-85
2023/06/06 14:56:43;;;;;;;9.57;5.88;;;;;;;20.48;59.36;102104.97;4965872;28;20038;-85
2023/06/06 14:59:09;;;;;;;9.77;6.03;;;;;;;20.47;59.25;102100.63;4963957;28;20092;-85
2023/06/06 15:01:36;;;;;;;6.28;5.38;;;;;;;20.49;59.71;102096.06;4967960;28;20270;-85
2023/06/06 15:04:03;;;;;;;13.32;5.43;;;;;;;20.49;60.13;102091.59;4990534;28;20058;-85
2023/06/06 15:06:29;;;;;;;10.00;5.55;;;;;;;20.51;59.95;102091.50;4979934;28;20038;-85
2023/06/06 15:08:55;;;;;;;11.48;5.63;;;;;;;20.48;60.14;102095.22;4989571;28;20058;-85
2023/06/06 15:11:21;;;;;;;11.70;5.68;;;;;;;20.49;60.10;102090.75;4990770;28;20348;-85
2023/06/06 15:13:46;;;;;;;10.27;6.03;;;;;;;20.47;59.80;102082.00;4973623;28;20042;-85
2023/06/06 15:16:12;;;;;;;8.23;5.80;;;;;;;20.53;60.34;102089.59;4987912;28;20039;-85